ADDS METAR Data INFO
IDs: Format: Raw Decoded Include TAF

Data at: 1714 UTC 26 Apr 2018

METAR for:KFFT (Frankfort/Capital Ci, KY, US)
Text:KFFT 261653Z AUTO 00000KT 10SM CLR 17/04 A2989 RMK AO2 SLP121 T01720039
Temperature: 17.2°C ( 63°F)
Dewpoint: 3.9°C ( 39°F) [RH = 41%]
Pressure (altimeter):29.89 inches Hg (1012.3 mb) [Sea level pressure: 1012.1 mb]
Winds:calm
Visibility:10 or more sm (16+ km)
Ceiling:at least 12,000 feet AGL
Clouds:sky clear below 12,000 feet AGL
QC Flag:automated observation with no human augmentation